sensor_id;sensor_type;location;lat;lon;timestamp;temperature;humidity
54540;SHT30;40438;52.992;18.604;2023-08-06T00:00:41;18.54;82.31
54540;SHT30;40438;52.992;18.604;2023-08-06T00:03:06;18.56;82.31
54540;SHT30;40438;52.992;18.604;2023-08-06T00:05:33;18.56;82.39
54540;SHT30;40438;52.992;18.604;2023-08-06T00:08:00;18.54;82.57
54540;SHT30;40438;52.992;18.604;2023-08-06T00:10:26;18.56;82.49
54540;SHT30;40438;52.992;18.604;2023-08-06T00:12:51;18.56;82.57
54540;SHT30;40438;52.992;18.604;2023-08-06T00:15:17;18.54;82.58
54540;SHT30;40438;52.992;18.604;2023-08-06T00:17:43;18.54;82.79
54540;SHT30;40438;52.992;18.604;2023-08-06T00:20:09;18.52;83.08
54540;SHT30;40438;52.992;18.604;2023-08-06T00:22:36;18.50;83.25
54540;SHT30;40438;52.992;18.604;2023-08-06T00:25:05;18.50;83.45
54540;SHT30;40438;52.992;18.604;2023-08-06T00:27:31;18.46;83.60
54540;SHT30;40438;52.992;18.604;2023-08-06T00:29:56;18.46;83.72
54540;SHT30;40438;52.992;18.604;2023-08-06T00:32:22;18.46;83.76
54540;SHT30;40438;52.992;18.604;2023-08-06T00:34:48;18.50;83.59
54540;SHT30;40438;52.992;18.604;2023-08-06T00:37:14;18.47;83.68
54540;SHT30;40438;52.992;18.604;2023-08-06T00:39:40;18.46;83.71
54540;SHT30;40438;52.992;18.604;2023-08-06T00:42:07;18.42;83.96
54540;SHT30;40438;52.992;18.604;2023-08-06T00:44:33;18.44;84.06
54540;SHT30;40438;52.992;18.604;2023-08-06T00:46:58;18.42;84.24
54540;SHT30;40438;52.992;18.604;2023-08-06T00:49:24;18.40;84.06
54540;SHT30;40438;52.992;18.604;2023-08-06T00:51:50;18.39;84.07
54540;SHT30;40438;52.992;18.604;2023-08-06T00:54:16;18.36;84.20
54540;SHT30;40438;52.992;18.604;2023-08-06T00:56:42;18.40;84.19
54540;SHT30;40438;52.992;18.604;2023-08-06T00:59:10;18.37;84.02
54540;SHT30;40438;52.992;18.604;2023-08-06T01:01:36;18.39;84.13
54540;SHT30;40438;52.992;18.604;2023-08-06T01:04:02;18.36;84.32
54540;SHT30;40438;52.992;18.604;2023-08-06T01:06:42;18.34;84.42
54540;SHT30;40438;52.992;18.604;2023-08-06T01:09:20;18.39;84.24
54540;SHT30;40438;52.992;18.604;2023-08-06T01:12:06;18.34;84.10
54540;SHT30;40438;52.992;18.604;2023-08-06T01:14:41;18.36;83.87
54540;SHT30;40438;52.992;18.604;2023-08-06T01:17:09;18.36;83.83
54540;SHT30;40438;52.992;18.604;2023-08-06T01:19:35;18.34;83.73
54540;SHT30;40438;52.992;18.604;2023-08-06T01:22:03;18.32;83.71
54540;SHT30;40438;52.992;18.604;2023-08-06T01:24:29;18.34;83.55
54540;SHT30;40438;52.992;18.604;2023-08-06T01:26:58;18.30;83.54
54540;SHT30;40438;52.992;18.604;2023-08-06T01:29:30;18.26;83.73
54540;SHT30;40438;52.992;18.604;2023-08-06T01:31:57;18.17;84.04
54540;SHT30;40438;52.992;18.604;2023-08-06T01:34:27;18.19;83.86
54540;SHT30;40438;52.992;18.604;2023-08-06T01:36:54;18.15;83.98
54540;SHT30;40438;52.992;18.604;2023-08-06T01:39:21;18.29;83.38
54540;SHT30;40438;52.992;18.604;2023-08-06T01:41:47;18.17;83.77
54540;SHT30;40438;52.992;18.604;2023-08-06T01:44:12;18.13;84.04
54540;SHT30;40438;52.992;18.604;2023-08-06T01:46:39;18.09;84.09
54540;SHT30;40438;52.992;18.604;2023-08-06T01:49:06;18.09;84.16
54540;SHT30;40438;52.992;18.604;2023-08-06T01:51:32;18.10;84.34
54540;SHT30;40438;52.992;18.604;2023-08-06T01:53:58;18.10;84.16
54540;SHT30;40438;52.992;18.604;2023-08-06T01:56:25;18.12;84.28
54540;SHT30;40438;52.992;18.604;2023-08-06T01:58:51;18.13;84.35
54540;SHT30;40438;52.992;18.604;2023-08-06T02:01:17;18.06;84.71
54540;SHT30;40438;52.992;18.604;2023-08-06T02:03:44;18.19;84.23
54540;SHT30;40438;52.992;18.604;2023-08-06T02:06:10;18.17;84.41
54540;SHT30;40438;52.992;18.604;2023-08-06T02:08:36;18.16;84.58
54540;SHT30;40438;52.992;18.604;2023-08-06T02:11:01;18.20;84.42
54540;SHT30;40438;52.992;18.604;2023-08-06T02:13:29;18.19;84.48
54540;SHT30;40438;52.992;18.604;2023-08-06T02:15:54;18.22;84.50
54540;SHT30;40438;52.992;18.604;2023-08-06T02:18:20;18.19;84.84
54540;SHT30;40438;52.992;18.604;2023-08-06T02:20:54;18.29;84.62
54540;SHT30;40438;52.992;18.604;2023-08-06T02:23:21;18.23;84.65
54540;SHT30;40438;52.992;18.604;2023-08-06T02:25:47;18.23;84.71
54540;SHT30;40438;52.992;18.604;2023-08-06T02:28:13;18.22;84.70
54540;SHT30;40438;52.992;18.604;2023-08-06T02:30:49;18.23;84.85
54540;SHT30;40438;52.992;18.604;2023-08-06T02:33:15;18.26;84.80
54540;SHT30;40438;52.992;18.604;2023-08-06T02:35:41;18.29;84.79
54540;SHT30;40438;52.992;18.604;2023-08-06T02:38:06;18.29;84.84
54540;SHT30;40438;52.992;18.604;2023-08-06T02:40:32;18.27;84.96
54540;SHT30;40438;52.992;18.604;2023-08-06T02:42:58;18.23;85.02
54540;SHT30;40438;52.992;18.604;2023-08-06T02:45:24;18.23;85.11
54540;SHT30;40438;52.992;18.604;2023-08-06T02:47:51;18.20;85.31
54540;SHT30;40438;52.992;18.604;2023-08-06T02:50:17;18.25;85.11
54540;SHT30;40438;52.992;18.604;2023-08-06T02:52:43;18.22;85.22
54540;SHT30;40438;52.992;18.604;2023-08-06T02:55:10;18.22;85.33
54540;SHT30;40438;52.992;18.604;2023-08-06T02:57:40;18.15;85.42
54540;SHT30;40438;52.992;18.604;2023-08-06T03:00:07;18.16;85.49
54540;SHT30;40438;52.992;18.604;2023-08-06T03:02:33;18.19;85.53
54540;SHT30;40438;52.992;18.604;2023-08-06T03:05:20;18.20;85.38
54540;SHT30;40438;52.992;18.604;2023-08-06T03:07:49;18.23;85.28
54540;SHT30;40438;52.992;18.604;2023-08-06T03:10:20;18.26;85.25
54540;SHT30;40438;52.992;18.604;2023-08-06T03:12:48;18.27;85.18
54540;SHT30;40438;52.992;18.604;2023-08-06T03:15:14;18.25;85.22
54540;SHT30;40438;52.992;18.604;2023-08-06T03:17:42;18.20;85.29
54540;SHT30;40438;52.992;18.604;2023-08-06T03:20:09;18.19;85.42
54540;SHT30;40438;52.992;18.604;2023-08-06T03:22:37;18.20;85.38
54540;SHT30;40438;52.992;18.604;2023-08-06T03:25:04;18.26;85.18
54540;SHT30;40438;52.992;18.604;2023-08-06T03:27:30;18.23;85.26
54540;SHT30;40438;52.992;18.604;2023-08-06T03:29:55;18.22;85.25
54540;SHT30;40438;52.992;18.604;2023-08-06T03:32:24;18.23;85.40
54540;SHT30;40438;52.992;18.604;2023-08-06T03:34:52;18.29;85.12
54540;SHT30;40438;52.992;18.604;2023-08-06T03:37:19;18.30;85.11
54540;SHT30;40438;52.992;18.604;2023-08-06T03:39:46;18.29;85.15
54540;SHT30;40438;52.992;18.604;2023-08-06T03:42:12;18.26;85.25
54540;SHT30;40438;52.992;18.604;2023-08-06T03:44:38;18.26;85.31
54540;SHT30;40438;52.992;18.604;2023-08-06T03:47:06;18.26;85.21
54540;SHT30;40438;52.992;18.604;2023-08-06T03:49:32;18.23;85.29
54540;SHT30;40438;52.992;18.604;2023-08-06T03:51:57;18.26;85.27
54540;SHT30;40438;52.992;18.604;2023-08-06T03:54:23;18.23;85.34
54540;SHT30;40438;52.992;18.604;2023-08-06T03:56:50;18.29;85.29
54540;SHT30;40438;52.992;18.604;2023-08-06T03:59:16;18.27;85.22
54540;SHT30;40438;52.992;18.604;2023-08-06T04:01:43;18.29;85.26
54540;SHT30;40438;52.992;18.604;2023-08-06T04:04:09;18.29;85.24
54540;SHT30;40438;52.992;18.604;2023-08-06T04:06:35;18.34;85.12
54540;SHT30;40438;52.992;18.604;2023-08-06T04:09:00;18.30;85.22
54540;SHT30;40438;52.992;18.604;2023-08-06T04:11:26;18.26;85.36
54540;SHT30;40438;52.992;18.604;2023-08-06T04:13:53;18.32;85.30
54540;SHT30;40438;52.992;18.604;2023-08-06T04:16:19;18.23;85.38
54540;SHT30;40438;52.992;18.604;2023-08-06T04:18:46;18.29;85.39
54540;SHT30;40438;52.992;18.604;2023-08-06T04:21:12;18.23;85.49
54540;SHT30;40438;52.992;18.604;2023-08-06T04:23:39;18.25;85.66
54540;SHT30;40438;52.992;18.604;2023-08-06T04:26:07;18.27;85.66
54540;SHT30;40438;52.992;18.604;2023-08-06T04:28:35;18.30;85.66
54540;SHT30;40438;52.992;18.604;2023-08-06T04:31:02;18.32;85.54
54540;SHT30;40438;52.992;18.604;2023-08-06T04:33:30;18.30;85.67
54540;SHT30;40438;52.992;18.604;2023-08-06T04:35:59;18.26;85.82
54540;SHT30;40438;52.992;18.604;2023-08-06T04:38:26;18.34;85.70
54540;SHT30;40438;52.992;18.604;2023-08-06T04:40:53;18.33;85.70
54540;SHT30;40438;52.992;18.604;2023-08-06T04:43:20;18.36;85.65
54540;SHT30;40438;52.992;18.604;2023-08-06T04:45:46;18.36;85.62
54540;SHT30;40438;52.992;18.604;2023-08-06T04:48:13;18.42;85.55
54540;SHT30;40438;52.992;18.604;2023-08-06T04:50:43;18.44;85.44
54540;SHT30;40438;52.992;18.604;2023-08-06T04:53:09;18.50;85.40
54540;SHT30;40438;52.992;18.604;2023-08-06T04:55:35;18.53;85.37
54540;SHT30;40438;52.992;18.604;2023-08-06T04:58:00;18.47;85.47
54540;SHT30;40438;52.992;18.604;2023-08-06T05:00:26;18.49;85.53
54540;SHT30;40438;52.992;18.604;2023-08-06T05:02:52;18.49;85.57
54540;SHT30;40438;52.992;18.604;2023-08-06T05:05:19;18.53;85.56
54540;SHT30;40438;52.992;18.604;2023-08-06T05:07:47;18.53;85.53
54540;SHT30;40438;52.992;18.604;2023-08-06T05:10:13;18.56;85.46
54540;SHT30;40438;52.992;18.604;2023-08-06T05:12:39;18.57;85.54
54540;SHT30;40438;52.992;18.604;2023-08-06T05:15:05;18.60;85.56
54540;SHT30;40438;52.992;18.604;2023-08-06T05:17:31;18.61;85.66
54540;SHT30;40438;52.992;18.604;2023-08-06T05:19:57;18.67;85.47
54540;SHT30;40438;52.992;18.604;2023-08-06T05:22:24;18.71;85.38
54540;SHT30;40438;52.992;18.604;2023-08-06T05:24:50;18.74;85.59
54540;SHT30;40438;52.992;18.604;2023-08-06T05:27:16;18.74;85.71
54540;SHT30;40438;52.992;18.604;2023-08-06T05:29:42;18.80;85.63
54540;SHT30;40438;52.992;18.604;2023-08-06T05:32:07;18.83;85.54
54540;SHT30;40438;52.992;18.604;2023-08-06T05:34:33;18.84;85.34
54540;SHT30;40438;52.992;18.604;2023-08-06T05:36:59;18.85;85.30
54540;SHT30;40438;52.992;18.604;2023-08-06T05:39:26;18.88;85.18
54540;SHT30;40438;52.992;18.604;2023-08-06T05:41:52;18.91;85.12
54540;SHT30;40438;52.992;18.604;2023-08-06T05:44:18;18.91;85.11
54540;SHT30;40438;52.992;18.604;2023-08-06T05:46:44;18.89;85.20
54540;SHT30;40438;52.992;18.604;2023-08-06T05:49:09;18.88;85.23
54540;SHT30;40438;52.992;18.604;2023-08-06T05:51:35;18.88;85.31
54540;SHT30;40438;52.992;18.604;2023-08-06T05:54:01;18.91;85.48
54540;SHT30;40438;52.992;18.604;2023-08-06T05:56:28;18.92;85.56
54540;SHT30;40438;52.992;18.604;2023-08-06T05:58:54;18.92;85.59
54540;SHT30;40438;52.992;18.604;2023-08-06T06:01:19;18.96;85.24
54540;SHT30;40438;52.992;18.604;2023-08-06T06:03:45;18.95;85.36
54540;SHT30;40438;52.992;18.604;2023-08-06T06:06:11;18.99;85.35
54540;SHT30;40438;52.992;18.604;2023-08-06T06:08:37;18.98;85.45
54540;SHT30;40438;52.992;18.604;2023-08-06T06:11:03;19.04;85.45
54540;SHT30;40438;52.992;18.604;2023-08-06T06:13:30;19.08;85.41
54540;SHT30;40438;52.992;18.604;2023-08-06T06:15:56;19.09;85.25
54540;SHT30;40438;52.992;18.604;2023-08-06T06:18:22;19.12;85.19
54540;SHT30;40438;52.992;18.604;2023-08-06T06:20:47;19.19;85.18
54540;SHT30;40438;52.992;18.604;2023-08-06T06:23:13;19.23;84.91
54540;SHT30;40438;52.992;18.604;2023-08-06T06:25:42;19.23;84.87
54540;SHT30;40438;52.992;18.604;2023-08-06T06:28:08;19.28;84.85
54540;SHT30;40438;52.992;18.604;2023-08-06T06:30:35;19.32;84.76
54540;SHT30;40438;52.992;18.604;2023-08-06T06:33:01;19.36;84.80
54540;SHT30;40438;52.992;18.604;2023-08-06T06:35:26;19.38;84.67
54540;SHT30;40438;52.992;18.604;2023-08-06T06:37:52;19.42;84.57
54540;SHT30;40438;52.992;18.604;2023-08-06T06:40:18;19.43;84.47
54540;SHT30;40438;52.992;18.604;2023-08-06T06:42:44;19.45;84.32
54540;SHT30;40438;52.992;18.604;2023-08-06T06:45:10;19.46;84.23
54540;SHT30;40438;52.992;18.604;2023-08-06T06:47:37;19.45;84.18
54540;SHT30;40438;52.992;18.604;2023-08-06T06:50:03;19.46;84.30
54540;SHT30;40438;52.992;18.604;2023-08-06T06:52:29;19.49;84.25
54540;SHT30;40438;52.992;18.604;2023-08-06T06:54:55;19.50;84.27
54540;SHT30;40438;52.992;18.604;2023-08-06T06:57:21;19.50;84.21
54540;SHT30;40438;52.992;18.604;2023-08-06T06:59:46;19.53;84.01
54540;SHT30;40438;52.992;18.604;2023-08-06T07:02:12;19.49;84.07
54540;SHT30;40438;52.992;18.604;2023-08-06T07:04:39;19.52;84.19
54540;SHT30;40438;52.992;18.604;2023-08-06T07:07:05;19.53;84.24
54540;SHT30;40438;52.992;18.604;2023-08-06T07:09:31;19.53;84.23
54540;SHT30;40438;52.992;18.604;2023-08-06T07:11:57;19.54;84.26
54540;SHT30;40438;52.992;18.604;2023-08-06T07:14:24;19.53;84.21
54540;SHT30;40438;52.992;18.604;2023-08-06T07:16:50;19.52;84.30
54540;SHT30;40438;52.992;18.604;2023-08-06T07:19:16;19.52;84.31
54540;SHT30;40438;52.992;18.604;2023-08-06T07:21:43;19.47;84.29
54540;SHT30;40438;52.992;18.604;2023-08-06T07:24:08;19.50;84.34
54540;SHT30;40438;52.992;18.604;2023-08-06T07:26:34;19.52;84.48
54540;SHT30;40438;52.992;18.604;2023-08-06T07:29:00;19.54;84.47
54540;SHT30;40438;52.992;18.604;2023-08-06T07:31:26;19.54;84.50
54540;SHT30;40438;52.992;18.604;2023-08-06T07:33:51;19.54;84.52
54540;SHT30;40438;52.992;18.604;2023-08-06T07:36:17;19.53;84.60
54540;SHT30;40438;52.992;18.604;2023-08-06T07:38:45;19.56;84.67
54540;SHT30;40438;52.992;18.604;2023-08-06T07:41:10;19.59;84.70
54540;SHT30;40438;52.992;18.604;2023-08-06T07:43:36;19.57;84.76
54540;SHT30;40438;52.992;18.604;2023-08-06T07:46:02;19.54;84.85
54540;SHT30;40438;52.992;18.604;2023-08-06T07:48:28;19.56;84.92
54540;SHT30;40438;52.992;18.604;2023-08-06T07:50:54;19.53;85.02
54540;SHT30;40438;52.992;18.604;2023-08-06T07:53:20;19.53;85.02
54540;SHT30;40438;52.992;18.604;2023-08-06T07:55:50;19.52;85.03
54540;SHT30;40438;52.992;18.604;2023-08-06T07:58:15;19.57;85.08
54540;SHT30;40438;52.992;18.604;2023-08-06T08:00:41;19.53;85.26
54540;SHT30;40438;52.992;18.604;2023-08-06T08:03:07;19.53;85.31
54540;SHT30;40438;52.992;18.604;2023-08-06T08:05:33;19.52;85.43
54540;SHT30;40438;52.992;18.604;2023-08-06T08:07:58;19.54;85.45
54540;SHT30;40438;52.992;18.604;2023-08-06T08:10:24;19.59;85.48
54540;SHT30;40438;52.992;18.604;2023-08-06T08:12:51;19.62;85.33
54540;SHT30;40438;52.992;18.604;2023-08-06T08:15:17;19.60;85.30
54540;SHT30;40438;52.992;18.604;2023-08-06T08:17:43;19.64;85.49
54540;SHT30;40438;52.992;18.604;2023-08-06T08:20:09;19.63;85.66
54540;SHT30;40438;52.992;18.604;2023-08-06T08:22:35;19.64;85.64
54540;SHT30;40438;52.992;18.604;2023-08-06T08:25:01;19.70;85.67
54540;SHT30;40438;52.992;18.604;2023-08-06T08:27:27;19.70;85.85
54540;SHT30;40438;52.992;18.604;2023-08-06T08:29:54;19.70;86.00
54540;SHT30;40438;52.992;18.604;2023-08-06T08:32:20;19.73;86.08
54540;SHT30;40438;52.992;18.604;2023-08-06T08:34:46;19.73;86.12
54540;SHT30;40438;52.992;18.604;2023-08-06T08:37:12;19.73;86.34
54540;SHT30;40438;52.992;18.604;2023-08-06T08:39:38;19.73;86.50
54540;SHT30;40438;52.992;18.604;2023-08-06T08:42:05;19.75;86.81
54540;SHT30;40438;52.992;18.604;2023-08-06T08:44:32;19.77;86.91
54540;SHT30;40438;52.992;18.604;2023-08-06T08:46:59;19.80;87.11
54540;SHT30;40438;52.992;18.604;2023-08-06T08:49:26;19.80;87.22
54540;SHT30;40438;52.992;18.604;2023-08-06T08:51:53;19.81;87.09
54540;SHT30;40438;52.992;18.604;2023-08-06T08:54:20;19.84;87.02
54540;SHT30;40438;52.992;18.604;2023-08-06T08:56:48;19.85;87.07
54540;SHT30;40438;52.992;18.604;2023-08-06T08:59:14;19.93;87.01
54540;SHT30;40438;52.992;18.604;2023-08-06T09:01:40;19.94;86.92
54540;SHT30;40438;52.992;18.604;2023-08-06T09:04:09;19.94;86.95
54540;SHT30;40438;52.992;18.604;2023-08-06T09:06:38;19.98;86.85
54540;SHT30;40438;52.992;18.604;2023-08-06T09:09:07;19.98;86.74
54540;SHT30;40438;52.992;18.604;2023-08-06T09:11:36;20.01;86.54
54540;SHT30;40438;52.992;18.604;2023-08-06T09:14:02;19.98;86.58
54540;SHT30;40438;52.992;18.604;2023-08-06T09:16:28;20.03;86.78
54540;SHT30;40438;52.992;18.604;2023-08-06T09:18:54;20.04;86.89
54540;SHT30;40438;52.992;18.604;2023-08-06T09:21:22;20.05;86.94
54540;SHT30;40438;52.992;18.604;2023-08-06T09:23:48;20.05;87.10
54540;SHT30;40438;52.992;18.604;2023-08-06T09:26:14;20.04;87.26
54540;SHT30;40438;52.992;18.604;2023-08-06T09:28:40;20.05;87.39
54540;SHT30;40438;52.992;18.604;2023-08-06T09:31:05;20.03;87.45
54540;SHT30;40438;52.992;18.604;2023-08-06T09:33:31;20.03;87.55
54540;SHT30;40438;52.992;18.604;2023-08-06T09:35:57;20.03;87.67
54540;SHT30;40438;52.992;18.604;2023-08-06T09:38:25;20.03;87.78
54540;SHT30;40438;52.992;18.604;2023-08-06T09:40:50;19.97;88.04
54540;SHT30;40438;52.992;18.604;2023-08-06T09:43:19;19.96;88.15
54540;SHT30;40438;52.992;18.604;2023-08-06T09:45:44;19.96;88.19
54540;SHT30;40438;52.992;18.604;2023-08-06T09:48:10;19.93;88.33
54540;SHT30;40438;52.992;18.604;2023-08-06T09:50:37;19.97;88.46
54540;SHT30;40438;52.992;18.604;2023-08-06T09:53:03;19.97;88.51
54540;SHT30;40438;52.992;18.604;2023-08-06T09:55:32;20.01;88.63
54540;SHT30;40438;52.992;18.604;2023-08-06T09:57:59;20.01;88.69
54540;SHT30;40438;52.992;18.604;2023-08-06T10:00:25;20.04;88.65
54540;SHT30;40438;52.992;18.604;2023-08-06T10:02:52;20.07;88.72
54540;SHT30;40438;52.992;18.604;2023-08-06T10:05:18;20.05;88.70
54540;SHT30;40438;52.992;18.604;2023-08-06T10:07:45;20.10;88.87
54540;SHT30;40438;52.992;18.604;2023-08-06T10:10:11;20.11;89.00
54540;SHT30;40438;52.992;18.604;2023-08-06T10:12:40;20.14;89.15
54540;SHT30;40438;52.992;18.604;2023-08-06T10:15:11;20.15;89.20
54540;SHT30;40438;52.992;18.604;2023-08-06T10:17:38;20.15;89.25
54540;SHT30;40438;52.992;18.604;2023-08-06T10:20:07;20.17;89.23
54540;SHT30;40438;52.992;18.604;2023-08-06T10:22:33;20.18;89.21
54540;SHT30;40438;52.992;18.604;2023-08-06T10:25:00;20.22;89.11
54540;SHT30;40438;52.992;18.604;2023-08-06T10:27:29;20.22;89.05
54540;SHT30;40438;52.992;18.604;2023-08-06T10:30:23;20.26;88.94
54540;SHT30;40438;52.992;18.604;2023-08-06T10:32:49;20.31;88.82
54540;SHT30;40438;52.992;18.604;2023-08-06T10:35:29;20.31;88.78
54540;SHT30;40438;52.992;18.604;2023-08-06T10:37:58;20.33;88.87
54540;SHT30;40438;52.992;18.604;2023-08-06T10:40:24;20.35;88.97
54540;SHT30;40438;52.992;18.604;2023-08-06T10:42:50;20.39;89.13
54540;SHT30;40438;52.992;18.604;2023-08-06T10:45:18;20.42;89.23
54540;SHT30;40438;52.992;18.604;2023-08-06T10:47:45;20.48;89.28
54540;SHT30;40438;52.992;18.604;2023-08-06T10:50:12;20.51;89.27
54540;SHT30;40438;52.992;18.604;2023-08-06T10:52:38;20.59;89.19
54540;SHT30;40438;52.992;18.604;2023-08-06T10:55:04;20.63;89.06
54540;SHT30;40438;52.992;18.604;2023-08-06T10:57:30;20.73;88.94
54540;SHT30;40438;52.992;18.604;2023-08-06T10:59:56;20.79;88.78
54540;SHT30;40438;52.992;18.604;2023-08-06T11:02:23;20.82;88.45
54540;SHT30;40438;52.992;18.604;2023-08-06T11:04:49;20.89;88.26
54540;SHT30;40438;52.992;18.604;2023-08-06T11:07:15;20.97;88.14
54540;SHT30;40438;52.992;18.604;2023-08-06T11:09:40;21.01;88.07
54540;SHT30;40438;52.992;18.604;2023-08-06T11:12:09;21.07;88.05
54540;SHT30;40438;52.992;18.604;2023-08-06T11:14:35;21.13;87.74
54540;SHT30;40438;52.992;18.604;2023-08-06T11:17:01;21.15;87.36
54540;SHT30;40438;52.992;18.604;2023-08-06T11:19:28;21.20;87.23
54540;SHT30;40438;52.992;18.604;2023-08-06T11:21:54;21.21;87.22
54540;SHT30;40438;52.992;18.604;2023-08-06T11:24:22;21.26;87.13
54540;SHT30;40438;52.992;18.604;2023-08-06T11:26:49;21.31;87.15
54540;SHT30;40438;52.992;18.604;2023-08-06T11:29:15;21.31;87.20
54540;SHT30;40438;52.992;18.604;2023-08-06T11:31:41;21.32;87.10
54540;SHT30;40438;52.992;18.604;2023-08-06T11:34:07;21.37;86.93
54540;SHT30;40438;52.992;18.604;2023-08-06T11:36:40;21.42;86.74
54540;SHT30;40438;52.992;18.604;2023-08-06T11:39:06;21.45;86.70
54540;SHT30;40438;52.992;18.604;2023-08-06T11:41:32;21.51;86.59
54540;SHT30;40438;52.992;18.604;2023-08-06T11:43:58;21.61;86.65
54540;SHT30;40438;52.992;18.604;2023-08-06T11:46:24;21.71;86.38
54540;SHT30;40438;52.992;18.604;2023-08-06T11:48:53;21.79;86.36
54540;SHT30;40438;52.992;18.604;2023-08-06T11:51:22;21.80;86.41
54540;SHT30;40438;52.992;18.604;2023-08-06T11:53:50;21.86;86.33
54540;SHT30;40438;52.992;18.604;2023-08-06T11:56:15;21.86;86.14
54540;SHT30;40438;52.992;18.604;2023-08-06T11:58:41;21.93;86.28
54540;SHT30;40438;52.992;18.604;2023-08-06T12:01:07;21.95;86.15
54540;SHT30;40438;52.992;18.604;2023-08-06T12:03:39;22.00;85.90
54540;SHT30;40438;52.992;18.604;2023-08-06T12:06:04;21.99;85.76
54540;SHT30;40438;52.992;18.604;2023-08-06T12:08:30;21.99;85.87
54540;SHT30;40438;52.992;18.604;2023-08-06T12:10:57;21.99;85.61
54540;SHT30;40438;52.992;18.604;2023-08-06T12:13:23;22.00;85.56
54540;SHT30;40438;52.992;18.604;2023-08-06T12:15:49;21.98;85.49
54540;SHT30;40438;52.992;18.604;2023-08-06T12:18:15;22.02;85.56
54540;SHT30;40438;52.992;18.604;2023-08-06T12:20:41;22.02;85.69
54540;SHT30;40438;52.992;18.604;2023-08-06T12:23:06;22.05;85.82
54540;SHT30;40438;52.992;18.604;2023-08-06T12:25:32;22.13;85.63
54540;SHT30;40438;52.992;18.604;2023-08-06T12:27:59;22.13;85.82
54540;SHT30;40438;52.992;18.604;2023-08-06T12:30:25;22.16;85.91
54540;SHT30;40438;52.992;18.604;2023-08-06T12:32:51;22.26;85.88
54540;SHT30;40438;52.992;18.604;2023-08-06T12:35:17;22.36;85.64
54540;SHT30;40438;52.992;18.604;2023-08-06T12:37:43;22.56;85.23
54540;SHT30;40438;52.992;18.604;2023-08-06T12:40:09;22.94;84.00
54540;SHT30;40438;52.992;18.604;2023-08-06T12:42:35;23.30;82.83
54540;SHT30;40438;52.992;18.604;2023-08-06T12:45:03;23.90;80.78
54540;SHT30;40438;52.992;18.604;2023-08-06T12:47:29;24.36;79.53
54540;SHT30;40438;52.992;18.604;2023-08-06T12:49:54;24.84;78.01
54540;SHT30;40438;52.992;18.604;2023-08-06T12:52:20;25.27;75.99
54540;SHT30;40438;52.992;18.604;2023-08-06T12:54:46;25.61;74.87
54540;SHT30;40438;52.992;18.604;2023-08-06T12:57:12;25.85;73.28
54540;SHT30;40438;52.992;18.604;2023-08-06T12:59:37;26.11;72.47
54540;SHT30;40438;52.992;18.604;2023-08-06T13:02:05;26.39;70.51
54540;SHT30;40438;52.992;18.604;2023-08-06T13:04:31;26.45;70.17
54540;SHT30;40438;52.992;18.604;2023-08-06T13:06:56;26.29;70.20
54540;SHT30;40438;52.992;18.604;2023-08-06T13:09:22;26.20;70.27
54540;SHT30;40438;52.992;18.604;2023-08-06T13:11:48;26.03;70.72
54540;SHT30;40438;52.992;18.604;2023-08-06T13:14:14;25.82;71.80
54540;SHT30;40438;52.992;18.604;2023-08-06T13:16:41;25.58;72.35
54540;SHT30;40438;52.992;18.604;2023-08-06T13:19:08;25.42;73.01
54540;SHT30;40438;52.992;18.604;2023-08-06T13:21:35;25.18;73.36
54540;SHT30;40438;52.992;18.604;2023-08-06T13:24:17;24.97;74.63
54540;SHT30;40438;52.992;18.604;2023-08-06T13:26:43;24.88;74.84
54540;SHT30;40438;52.992;18.604;2023-08-06T13:29:09;24.73;75.43
54540;SHT30;40438;52.992;18.604;2023-08-06T13:31:36;24.60;75.92
54540;SHT30;40438;52.992;18.604;2023-08-06T13:34:02;24.59;76.12
54540;SHT30;40438;52.992;18.604;2023-08-06T13:36:29;24.55;75.69
54540;SHT30;40438;52.992;18.604;2023-08-06T13:38:55;24.46;76.30
54540;SHT30;40438;52.992;18.604;2023-08-06T13:41:21;24.41;76.31
54540;SHT30;40438;52.992;18.604;2023-08-06T13:43:48;24.36;76.32
54540;SHT30;40438;52.992;18.604;2023-08-06T13:46:14;24.32;76.51
54540;SHT30;40438;52.992;18.604;2023-08-06T13:48:39;24.21;76.77
54540;SHT30;40438;52.992;18.604;2023-08-06T13:51:05;24.26;76.84
54540;SHT30;40438;52.992;18.604;2023-08-06T13:53:32;24.18;77.26
54540;SHT30;40438;52.992;18.604;2023-08-06T13:55:58;24.08;77.75
54540;SHT30;40438;52.992;18.604;2023-08-06T13:58:24;24.02;77.81
54540;SHT30;40438;52.992;18.604;2023-08-06T14:00:50;23.97;78.24
54540;SHT30;40438;52.992;18.604;2023-08-06T14:03:16;23.91;78.59
54540;SHT30;40438;52.992;18.604;2023-08-06T14:05:41;23.91;78.84
54540;SHT30;40438;52.992;18.604;2023-08-06T14:08:07;23.85;79.22
54540;SHT30;40438;52.992;18.604;2023-08-06T14:10:34;23.81;79.78
54540;SHT30;40438;52.992;18.604;2023-08-06T14:13:00;23.77;80.20
54540;SHT30;40438;52.992;18.604;2023-08-06T14:15:26;23.73;80.42
54540;SHT30;40438;52.992;18.604;2023-08-06T14:17:51;23.68;80.78
54540;SHT30;40438;52.992;18.604;2023-08-06T14:20:17;23.63;81.22
54540;SHT30;40438;52.992;18.604;2023-08-06T14:22:43;23.58;81.69
54540;SHT30;40438;52.992;18.604;2023-08-06T14:25:09;23.54;81.91
54540;SHT30;40438;52.992;18.604;2023-08-06T14:27:36;23.50;82.07
54540;SHT30;40438;52.992;18.604;2023-08-06T14:30:03;23.50;82.40
54540;SHT30;40438;52.992;18.604;2023-08-06T14:32:29;23.46;82.98
54540;SHT30;40438;52.992;18.604;2023-08-06T14:34:55;23.40;83.36
54540;SHT30;40438;52.992;18.604;2023-08-06T14:37:20;23.45;83.27
54540;SHT30;40438;52.992;18.604;2023-08-06T14:39:46;23.39;83.65
54540;SHT30;40438;52.992;18.604;2023-08-06T14:42:12;23.43;83.65
54540;SHT30;40438;52.992;18.604;2023-08-06T14:44:39;23.39;84.23
54540;SHT30;40438;52.992;18.604;2023-08-06T14:47:05;23.37;83.99
54540;SHT30;40438;52.992;18.604;2023-08-06T14:49:31;23.23;82.17
54540;SHT30;40438;52.992;18.604;2023-08-06T14:51:57;23.02;81.73
54540;SHT30;40438;52.992;18.604;2023-08-06T14:54:22;22.95;81.66
54540;SHT30;40438;52.992;18.604;2023-08-06T14:56:48;22.87;82.10
54540;SHT30;40438;52.992;18.604;2023-08-06T14:59:14;22.72;82.70
54540;SHT30;40438;52.992;18.604;2023-08-06T15:01:41;22.72;82.61
54540;SHT30;40438;52.992;18.604;2023-08-06T15:04:07;22.58;82.64
54540;SHT30;40438;52.992;18.604;2023-08-06T15:06:33;22.56;82.56
54540;SHT30;40438;52.992;18.604;2023-08-06T15:08:58;22.58;82.35
54540;SHT30;40438;52.992;18.604;2023-08-06T15:11:24;22.56;81.78